Bond, Colorado
Current Conditions -  °F | °C
As of 2:50 PM on Wednesday 22 Oct 2014 (Local Time) from KEGE Reporting Station
Scattered Clouds Scattered Clouds  
Wind Chill: 61°   Ceiling: Unl
Heat Index: 61°   Visibility: 10mi
Dew Point: 37°   Wind: 20mph
Humidity: 42%   Direction: 220°SW
Pressure: 30.17"   Gusts: 25mph
Location:  39.87°N, 106.69°W
Report Text: KEGE 222050Z 22017G22KT 10SM SCT090 16/03 A3017
Loading
Personal Weather Stations






























Interactive Weather Map
Tropical Storm Tracking
New forecast layout! Learn more

10-Day Weather Forecast

Advertisements
Track Severe Weather on mobile